Time;durP1;ratioP1;P1;durP2;ratioP2;P2;SDS_P1;SDS_P2;PMS_P1;PMS_P2;Temp;Humidity;BMP_temperature;BMP_pressure;BME280_temperature;BME280_humidity;BME280_pressure;Samples;Min_cycle;Max_cycle;Signal;HPM_P1;HPM_P2
2021/01/23 00:02:01;;;;;;;4.88;3.22;;;;;;;;;;4991716;27;105680;-66
2021/01/23 00:04:27;;;;;;;4.55;3.20;;;;;;;;;;4956841;27;109618;-70
2021/01/23 00:06:52;;;;;;;4.05;3.00;;;;;;;;;;4990920;27;106659;-68
2021/01/23 00:09:18;;;;;;;4.20;2.90;;;;;;;;;;5023428;27;106408;-69
2021/01/23 00:11:43;;;;;;;3.88;3.00;;;;;;;;;;4992697;27;106129;-70
2021/01/23 00:14:09;;;;;;;4.82;3.05;;;;;;;;;;5006447;27;106340;-70
2021/01/23 00:16:35;;;;;;;2.97;2.25;;;;;;;;;;4974624;27;105762;-69
2021/01/23 00:19:01;;;;;;;4.07;2.85;;;;;;;;;;5009328;27;106156;-67
2021/01/23 00:21:26;;;;;;;3.08;2.60;;;;;;;;;;4974115;27;106108;-68
2021/01/23 00:23:51;;;;;;;4.25;3.00;;;;;;;;;;5027013;27;105989;-71
2021/01/23 00:26:17;;;;;;;4.78;3.42;;;;;;;;;;5005672;27;109122;-66
2021/01/23 00:28:43;;;;;;;5.28;3.63;;;;;;;;;;4994319;27;105752;-68
2021/01/23 00:31:08;;;;;;;6.40;4.00;;;;;;;;;;5024849;27;106232;-69
2021/01/23 00:33:33;;;;;;;6.70;4.35;;;;;;;;;;5027129;27;106082;-67
2021/01/23 00:35:59;;;;;;;6.07;3.88;;;;;;;;;;4990198;27;105690;-66
2021/01/23 00:38:24;;;;;;;5.38;3.65;;;;;;;;;;4988851;27;109283;-69
2021/01/23 00:40:50;;;;;;;4.25;3.03;;;;;;;;;;5012704;27;105592;-69
2021/01/23 00:43:15;;;;;;;4.30;3.30;;;;;;;;;;5005301;27;106184;-69
2021/01/23 00:45:41;;;;;;;4.50;3.35;;;;;;;;;;5024270;27;106679;-68
2021/01/23 00:48:08;;;;;;;4.20;3.13;;;;;;;;;;5024452;27;105464;-68
2021/01/23 00:50:33;;;;;;;5.03;3.10;;;;;;;;;;4962385;28;106498;-68
2021/01/23 00:52:59;;;;;;;5.20;3.30;;;;;;;;;;4930097;28;108231;-66
2021/01/23 00:55:24;;;;;;;4.07;3.03;;;;;;;;;;4930629;28;106535;-68
2021/01/23 00:57:50;;;;;;;4.60;3.30;;;;;;;;;;4962691;28;106776;-67
2021/01/23 01:00:23;;;;;;;4.45;3.30;;;;;;;;;;4947725;28;109963;-69
2021/01/23 01:02:49;;;;;;;4.40;3.13;;;;;;;;;;4962740;28;106044;-67
2021/01/23 01:05:31;;;;;;;;;;;;;;;;;;4909019;28;109076;-66
2021/01/23 01:07:56;;;;;;;5.72;3.42;;;;;;;;;;4924541;28;105588;-67
2021/01/23 01:10:22;;;;;;;3.85;2.90;;;;;;;;;;4907736;28;106689;-68
2021/01/23 01:12:47;;;;;;;5.00;3.05;;;;;;;;;;4924242;28;108244;-67
2021/01/23 01:15:13;;;;;;;5.05;3.22;;;;;;;;;;4924441;28;105477;-68
2021/01/23 01:17:38;;;;;;;4.30;2.97;;;;;;;;;;4922826;28;110123;-66
2021/01/23 01:20:04;;;;;;;4.97;3.00;;;;;;;;;;4923511;28;109039;-68
2021/01/23 01:22:30;;;;;;;4.50;3.42;;;;;;;;;;4978619;28;105454;-65
2021/01/23 01:24:56;;;;;;;4.20;3.05;;;;;;;;;;4965612;28;106492;-68
2021/01/23 01:27:21;;;;;;;3.60;2.80;;;;;;;;;;4967328;28;106013;-67
2021/01/23 01:29:47;;;;;;;4.13;2.83;;;;;;;;;;4970496;28;105706;-69
2021/01/23 01:32:12;;;;;;;3.00;2.70;;;;;;;;;;4952888;28;107381;-67
2021/01/23 01:34:38;;;;;;;4.53;3.05;;;;;;;;;;4986794;28;105282;-67
2021/01/23 01:37:03;;;;;;;5.78;3.10;;;;;;;;;;5013774;27;105809;-68
2021/01/23 01:39:29;;;;;;;5.00;3.55;;;;;;;;;;5025301;27;107098;-66
2021/01/23 01:41:54;;;;;;;5.70;3.65;;;;;;;;;;5026769;27;105009;-67
2021/01/23 01:44:20;;;;;;;5.05;3.35;;;;;;;;;;5029268;27;106725;-68
2021/01/23 01:46:45;;;;;;;6.55;3.38;;;;;;;;;;5027560;27;106439;-69
2021/01/23 01:49:11;;;;;;;3.83;2.95;;;;;;;;;;5009088;27;106122;-65
2021/01/23 01:51:37;;;;;;;4.93;3.50;;;;;;;;;;4993652;27;106143;-70
2021/01/23 01:54:03;;;;;;;5.60;3.30;;;;;;;;;;5026372;27;105721;-66
2021/01/23 01:56:28;;;;;;;6.47;3.45;;;;;;;;;;4992668;27;106115;-68
2021/01/23 01:58:54;;;;;;;5.32;3.30;;;;;;;;;;5028523;27;106086;-67
2021/01/23 02:01:19;;;;;;;6.50;3.85;;;;;;;;;;5026736;27;105596;-69
2021/01/23 02:03:44;;;;;;;5.18;3.40;;;;;;;;;;5009613;27;106080;-67
2021/01/23 02:06:12;;;;;;;7.13;3.63;;;;;;;;;;5012018;27;106188;-68
2021/01/23 02:08:55;;;;;;;4.95;3.10;;;;;;;;;;5010341;27;106011;-68
2021/01/23 02:11:30;;;;;;;5.60;3.38;;;;;;;;;;5007247;27;105978;-69
2021/01/23 02:14:23;;;;;;;5.07;3.17;;;;;;;;;;5008373;27;105787;-69
2021/01/23 02:16:48;;;;;;;4.95;3.33;;;;;;;;;;5015166;27;106063;-65
2021/01/23 02:19:38;;;;;;;4.40;3.00;;;;;;;;;;5006379;27;106253;-69
2021/01/23 02:22:45;;;;;;;4.80;3.20;;;;;;;;;;5008985;27;105404;-70
2021/01/23 02:25:10;;;;;;;5.13;3.00;;;;;;;;;;5009410;27;106476;-67
2021/01/23 02:27:55;;;;;;;4.60;3.20;;;;;;;;;;4950409;28;108570;-67
2021/01/23 02:30:25;;;;;;;5.32;2.95;;;;;;;;;;4982694;28;105316;-68
2021/01/23 02:32:53;;;;;;;4.45;3.25;;;;;;;;;;4950639;28;106101;-67
2021/01/23 02:35:18;;;;;;;3.92;2.70;;;;;;;;;;4967193;28;105892;-67
2021/01/23 02:37:44;;;;;;;4.72;2.88;;;;;;;;;;4946786;28;107565;-67
2021/01/23 02:40:10;;;;;;;3.95;2.75;;;;;;;;;;4966030;28;106483;-69
2021/01/23 02:42:35;;;;;;;3.53;2.67;;;;;;;;;;4952176;28;105856;-67
2021/01/23 02:45:01;;;;;;;3.83;2.70;;;;;;;;;;4968524;28;106529;-68
2021/01/23 02:47:27;;;;;;;3.72;2.50;;;;;;;;;;4969879;28;106797;-68
2021/01/23 02:49:52;;;;;;;3.47;2.53;;;;;;;;;;4971955;28;105744;-69
2021/01/23 02:52:47;;;;;;;4.95;3.03;;;;;;;;;;4982808;28;106116;-66
2021/01/23 02:55:20;;;;;;;4.55;2.85;;;;;;;;;;4967131;28;105518;-67
2021/01/23 02:57:47;;;;;;;4.47;3.05;;;;;;;;;;4956660;27;106107;-71
2021/01/23 03:00:12;;;;;;;3.30;2.72;;;;;;;;;;4979442;27;109182;-68
2021/01/23 03:02:44;;;;;;;4.82;3.17;;;;;;;;;;4976459;27;105788;-68
2021/01/23 03:05:10;;;;;;;5.28;3.10;;;;;;;;;;4990236;27;107453;-65
2021/01/23 03:07:36;;;;;;;4.90;3.08;;;;;;;;;;5008157;27;105603;-70
2021/01/23 03:10:08;;;;;;;4.05;2.92;;;;;;;;;;4990970;27;105686;-68
2021/01/23 03:12:33;;;;;;;4.30;2.95;;;;;;;;;;5010191;27;106169;-69
2021/01/23 03:14:59;;;;;;;4.88;3.03;;;;;;;;;;4975539;27;105741;-69
2021/01/23 03:17:24;;;;;;;5.05;3.03;;;;;;;;;;5004311;27;106786;-66
2021/01/23 03:19:50;;;;;;;3.85;2.78;;;;;;;;;;4991674;27;109223;-67
2021/01/23 03:22:15;;;;;;;4.00;2.97;;;;;;;;;;5007008;27;105347;-67
2021/01/23 03:24:41;;;;;;;4.78;3.08;;;;;;;;;;4978964;27;110765;-67
2021/01/23 03:27:06;;;;;;;3.88;2.80;;;;;;;;;;5024268;27;106183;-67
2021/01/23 03:29:32;;;;;;;4.05;2.50;;;;;;;;;;4992412;27;105440;-66
2021/01/23 03:31:57;;;;;;;3.97;2.60;;;;;;;;;;5004281;27;105533;-69
2021/01/23 03:34:23;;;;;;;4.20;2.85;;;;;;;;;;5009515;27;109085;-67
2021/01/23 03:36:48;;;;;;;3.63;2.83;;;;;;;;;;4977045;27;109253;-67
2021/01/23 03:39:14;;;;;;;3.75;2.88;;;;;;;;;;5025220;27;106083;-69
2021/01/23 03:41:39;;;;;;;4.22;2.78;;;;;;;;;;5024932;27;104972;-67
2021/01/23 03:44:05;;;;;;;4.82;3.00;;;;;;;;;;5027072;27;106064;-68
2021/01/23 03:46:31;;;;;;;5.15;3.22;;;;;;;;;;5007510;27;106310;-66
2021/01/23 03:48:57;;;;;;;3.92;2.90;;;;;;;;;;5027527;27;105470;-66
2021/01/23 03:51:22;;;;;;;3.88;3.00;;;;;;;;;;5024707;27;106819;-68
2021/01/23 03:53:47;;;;;;;4.53;3.00;;;;;;;;;;4991337;27;106179;-68
2021/01/23 03:56:13;;;;;;;4.80;3.42;;;;;;;;;;4993470;27;105350;-68
2021/01/23 03:58:38;;;;;;;3.25;2.72;;;;;;;;;;5025363;27;106212;-67
2021/01/23 04:01:04;;;;;;;4.78;3.17;;;;;;;;;;5007166;27;105175;-66
2021/01/23 04:03:30;;;;;;;4.03;2.90;;;;;;;;;;5024549;27;106304;-67
2021/01/23 04:05:55;;;;;;;4.65;3.20;;;;;;;;;;5008080;27;106016;-70
2021/01/23 04:08:21;;;;;;;4.50;3.10;;;;;;;;;;4992868;27;105800;-68
2021/01/23 04:10:46;;;;;;;4.90;3.20;;;;;;;;;;5011831;27;115664;-68
2021/01/23 04:13:12;;;;;;;5.85;3.50;;;;;;;;;;5027408;27;106253;-68
2021/01/23 04:15:37;;;;;;;4.72;3.35;;;;;;;;;;5009471;27;106026;-68
2021/01/23 04:18:04;;;;;;;5.43;3.40;;;;;;;;;;5032433;27;107079;-67
2021/01/23 04:20:29;;;;;;;3.78;2.95;;;;;;;;;;4992691;27;105269;-68
2021/01/23 04:22:55;;;;;;;5.35;3.47;;;;;;;;;;5028462;27;106003;-68
2021/01/23 04:25:20;;;;;;;3.75;2.92;;;;;;;;;;4992459;27;106613;-65
2021/01/23 04:27:46;;;;;;;4.90;3.03;;;;;;;;;;5011505;27;105215;-63
2021/01/23 04:30:12;;;;;;;5.15;3.35;;;;;;;;;;5028334;27;106602;-66
2021/01/23 04:32:37;;;;;;;4.40;2.97;;;;;;;;;;5007871;27;106062;-67
2021/01/23 04:35:09;;;;;;;3.97;3.10;;;;;;;;;;5010221;27;105161;-69
2021/01/23 04:37:34;;;;;;;;;;;;;;;;;;5010028;27;106232;-70
2021/01/23 04:40:00;;;;;;;3.97;2.97;;;;;;;;;;5014205;27;106098;-66
2021/01/23 04:42:25;;;;;;;4.43;3.28;;;;;;;;;;5027489;27;106677;-64
2021/01/23 04:44:51;;;;;;;4.40;3.47;;;;;;;;;;4993982;27;106463;-70
2021/01/23 04:47:16;;;;;;;6.03;3.35;;;;;;;;;;5009753;27;105319;-66
2021/01/23 04:49:42;;;;;;;4.82;3.20;;;;;;;;;;5028860;27;106255;-67
2021/01/23 04:52:07;;;;;;;5.28;3.42;;;;;;;;;;5009164;27;106048;-66
2021/01/23 04:54:33;;;;;;;4.72;3.20;;;;;;;;;;4994569;27;105520;-66
2021/01/23 04:57:06;;;;;;;5.82;3.42;;;;;;;;;;5009322;27;105592;-66
2021/01/23 04:59:32;;;;;;;5.28;3.42;;;;;;;;;;5028756;27;106697;-67
2021/01/23 05:02:20;;;;;;;3.58;2.03;;;;;;;;;;5009788;27;106134;-66
2021/01/23 05:04:52;;;;;;;2.83;1.90;;;;;;;;;;5009443;27;106261;-67
2021/01/23 05:07:37;;;;;;;2.80;1.80;;;;;;;;;;5026250;27;105865;-66
2021/01/23 05:10:24;;;;;;;2.63;1.77;;;;;;;;;;4997924;27;106581;-67
2021/01/23 05:12:54;;;;;;;2.40;1.60;;;;;;;;;;5028293;27;105730;-68
2021/01/23 05:15:20;;;;;;;2.58;1.73;;;;;;;;;;5011068;27;105470;-67
2021/01/23 05:18:09;;;;;;;2.58;1.52;;;;;;;;;;4994784;27;108877;-68
2021/01/23 05:20:53;;;;;;;1.95;1.52;;;;;;;;;;5015870;27;106077;-69
2021/01/23 05:23:22;;;;;;;1.50;1.40;;;;;;;;;;5014038;27;105798;-68
2021/01/23 05:25:52;;;;;;;2.22;1.50;;;;;;;;;;5026846;27;106126;-69
2021/01/23 05:28:33;;;;;;;1.88;1.52;;;;;;;;;;5025555;27;105643;-67
2021/01/23 05:30:59;;;;;;;;;;;;;;;;;;5010338;27;106065;-68
2021/01/23 05:33:28;;;;;;;1.90;1.70;;;;;;;;;;5025867;27;106790;-66
2021/01/23 05:36:06;;;;;;;1.63;1.38;;;;;;;;;;5011285;27;105480;-68
2021/01/23 05:38:32;;;;;;;2.08;1.40;;;;;;;;;;5026314;27;106651;-66
2021/01/23 05:41:03;;;;;;;2.25;1.63;;;;;;;;;;5026217;27;105649;-68
2021/01/23 05:43:36;;;;;;;1.35;1.25;;;;;;;;;;5007371;27;106065;-67
2021/01/23 05:46:06;;;;;;;1.55;1.08;;;;;;;;;;5030000;27;105657;-65
2021/01/23 05:48:33;;;;;;;1.38;1.27;;;;;;;;;;5027900;27;105475;-67
2021/01/23 05:50:58;;;;;;;1.60;1.40;;;;;;;;;;4991865;27;105607;-64
2021/01/23 05:53:24;;;;;;;1.45;1.30;;;;;;;;;;4991638;27;106008;-66
2021/01/23 05:55:50;;;;;;;3.25;1.55;;;;;;;;;;5027931;27;105184;-66
2021/01/23 05:58:15;;;;;;;3.17;1.50;;;;;;;;;;4991300;27;106024;-69
2021/01/23 06:00:41;;;;;;;1.65;1.40;;;;;;;;;;4993109;27;106213;-68
2021/01/23 06:03:06;;;;;;;2.13;1.40;;;;;;;;;;4976511;27;105484;-67
2021/01/23 06:05:32;;;;;;;1.48;1.30;;;;;;;;;;5010515;27;106112;-67
2021/01/23 06:07:58;;;;;;;1.50;1.30;;;;;;;;;;4995927;27;105490;-66
2021/01/23 06:10:23;;;;;;;2.25;1.55;;;;;;;;;;5008977;27;106163;-69
2021/01/23 06:12:52;;;;;;;1.80;1.58;;;;;;;;;;5010568;27;106265;-68
2021/01/23 06:15:40;;;;;;;1.58;1.27;;;;;;;;;;4990188;27;105557;-68
2021/01/23 06:18:06;;;;;;;1.40;1.30;;;;;;;;;;5025846;27;106180;-66
2021/01/23 06:20:41;;;;;;;2.55;1.42;;;;;;;;;;5007484;27;106078;-68
2021/01/23 06:23:10;;;;;;;2.08;1.40;;;;;;;;;;5025148;27;105595;-69
2021/01/23 06:25:50;;;;;;;1.40;1.10;;;;;;;;;;4976192;27;109264;-67
2021/01/23 06:28:22;;;;;;;1.48;1.23;;;;;;;;;;5007725;27;107795;-69
2021/01/23 06:30:51;;;;;;;1.67;1.17;;;;;;;;;;4999597;27;105677;-71
2021/01/23 06:33:22;;;;;;;1.77;1.05;;;;;;;;;;5024358;27;106755;-68
2021/01/23 06:36:06;;;;;;;1.20;1.10;;;;;;;;;;5026473;27;105123;-71
2021/01/23 06:38:34;;;;;;;1.05;0.95;;;;;;;;;;5026929;27;105983;-70
2021/01/23 06:41:24;;;;;;;1.35;1.20;;;;;;;;;;4991229;27;106516;-69
2021/01/23 06:44:05;;;;;;;2.15;1.40;;;;;;;;;;4994431;27;106208;-69
2021/01/23 06:46:31;;;;;;;1.85;1.25;;;;;;;;;;5023911;27;106061;-68
2021/01/23 06:49:03;;;;;;;2.05;1.35;;;;;;;;;;4991865;27;107494;-67
2021/01/23 06:51:29;;;;;;;2.90;1.52;;;;;;;;;;5011523;27;105722;-65
2021/01/23 06:54:09;;;;;;;1.83;1.27;;;;;;;;;;5011115;27;105635;-67
2021/01/23 06:56:34;;;;;;;1.90;1.20;;;;;;;;;;5009706;27;105642;-68
2021/01/23 06:59:00;;;;;;;1.40;1.30;;;;;;;;;;5007645;27;106032;-66
2021/01/23 07:01:25;;;;;;;2.80;1.30;;;;;;;;;;5005711;27;105633;-66
2021/01/23 07:03:51;;;;;;;2.47;1.50;;;;;;;;;;5010254;27;106651;-67
2021/01/23 07:06:16;;;;;;;2.38;1.13;;;;;;;;;;4974516;27;108794;-67
2021/01/23 07:08:43;;;;;;;1.65;1.23;;;;;;;;;;4964955;27;106046;-67
2021/01/23 07:11:13;;;;;;;1.88;1.20;;;;;;;;;;4974889;27;105409;-70
2021/01/23 07:14:00;;;;;;;1.50;1.20;;;;;;;;;;5029407;27;106656;-67
2021/01/23 07:16:26;;;;;;;1.25;1.15;;;;;;;;;;5018934;27;105319;-64
2021/01/23 07:18:56;;;;;;;1.52;1.23;;;;;;;;;;5004112;27;106129;-70
2021/01/23 07:21:22;;;;;;;1.50;1.00;;;;;;;;;;4967453;27;107686;-69
2021/01/23 07:23:47;;;;;;;1.50;1.02;;;;;;;;;;5008918;27;105374;-67
2021/01/23 07:26:14;;;;;;;0.75;0.75;;;;;;;;;;4988510;27;106296;-71
2021/01/23 07:28:44;;;;;;;0.68;0.68;;;;;;;;;;4992167;27;106261;-67
2021/01/23 07:31:19;;;;;;;1.23;0.82;;;;;;;;;;5005403;27;105558;-69
2021/01/23 07:33:45;;;;;;;1.38;1.02;;;;;;;;;;5020696;27;105558;-65
2021/01/23 07:36:10;;;;;;;2.55;1.25;;;;;;;;;;4992939;27;106724;-66
2021/01/23 07:38:36;;;;;;;1.70;1.17;;;;;;;;;;5006957;27;106762;-67
2021/01/23 07:41:01;;;;;;;1.20;1.10;;;;;;;;;;4991500;27;105634;-69
2021/01/23 07:43:27;;;;;;;1.63;1.20;;;;;;;;;;5008405;27;105488;-66
2021/01/23 07:45:56;;;;;;;1.60;1.30;;;;;;;;;;4995693;27;106117;-66
2021/01/23 07:48:21;;;;;;;2.40;1.08;;;;;;;;;;5007683;27;105503;-70
2021/01/23 07:50:48;;;;;;;1.30;1.00;;;;;;;;;;4995125;27;105861;-67
2021/01/23 07:53:20;;;;;;;1.77;1.20;;;;;;;;;;5010429;27;107117;-67
2021/01/23 07:55:46;;;;;;;2.47;1.20;;;;;;;;;;5026197;27;106206;-67
2021/01/23 07:58:12;;;;;;;2.30;1.10;;;;;;;;;;5012806;27;105601;-67
2021/01/23 08:00:37;;;;;;;0.47;0.47;;;;;;;;;;4993001;27;106131;-69
2021/01/23 08:03:04;;;;;;;5.68;3.22;;;;;;;;;;5011758;27;106251;-68
2021/01/23 08:05:51;;;;;;;3.20;2.85;;;;;;;;;;5030423;27;105702;-68
2021/01/23 08:08:32;;;;;;;4.40;2.60;;;;;;;;;;4993524;27;107653;-69
2021/01/23 08:10:58;;;;;;;3.90;2.40;;;;;;;;;;5010996;27;105792;-67
2021/01/23 08:13:28;;;;;;;4.20;2.50;;;;;;;;;;5011616;27;105989;-68
2021/01/23 08:16:13;;;;;;;3.67;2.70;;;;;;;;;;5028475;27;106614;-70
2021/01/23 08:18:39;;;;;;;3.80;2.60;;;;;;;;;;4996278;27;105260;-70
2021/01/23 08:21:15;;;;;;;3.10;2.20;;;;;;;;;;4998139;27;105937;-69
2021/01/23 08:23:41;;;;;;;2.08;1.60;;;;;;;;;;5029555;27;105117;-68
2021/01/23 08:26:06;;;;;;;2.55;1.80;;;;;;;;;;5011575;27;106001;-66
2021/01/23 08:28:32;;;;;;;3.10;2.20;;;;;;;;;;4989970;27;106687;-63
2021/01/23 08:31:30;;;;;;;2.55;1.75;;;;;;;;;;5027222;27;105391;-69
2021/01/23 08:33:55;;;;;;;1.95;1.55;;;;;;;;;;4945478;27;109057;-65
2021/01/23 08:36:22;;;;;;;2.10;1.50;;;;;;;;;;5008371;27;106688;-66
2021/01/23 08:38:54;;;;;;;2.33;1.60;;;;;;;;;;4995666;27;105959;-67
2021/01/23 08:41:20;;;;;;;2.53;1.60;;;;;;;;;;5027805;27;106191;-67
2021/01/23 08:43:45;;;;;;;1.63;1.40;;;;;;;;;;5032710;27;105940;-69
2021/01/23 08:46:11;;;;;;;2.40;1.40;;;;;;;;;;5009864;27;106129;-68
2021/01/23 08:48:36;;;;;;;2.42;1.48;;;;;;;;;;5029794;27;106234;-68
2021/01/23 08:51:02;;;;;;;2.53;1.50;;;;;;;;;;5011454;27;106135;-66
2021/01/23 08:53:27;;;;;;;2.90;1.35;;;;;;;;;;5029156;27;106081;-68
2021/01/23 08:55:53;;;;;;;1.63;1.30;;;;;;;;;;5027951;27;106121;-70
2021/01/23 08:58:18;;;;;;;1.63;1.40;;;;;;;;;;4975154;27;105552;-66
2021/01/23 09:00:44;;;;;;;1.63;1.15;;;;;;;;;;5011558;27;105775;-67
2021/01/23 09:03:10;;;;;;;4.10;1.70;;;;;;;;;;5027045;27;106180;-67
2021/01/23 09:05:35;;;;;;;3.55;1.60;;;;;;;;;;5030932;27;105211;-68
2021/01/23 09:08:01;;;;;;;1.38;1.25;;;;;;;;;;4976511;27;106254;-67
2021/01/23 09:10:26;;;;;;;2.50;1.40;;;;;;;;;;5028394;27;106411;-66
2021/01/23 09:12:53;;;;;;;2.67;1.48;;;;;;;;;;4993242;27;106436;-69
2021/01/23 09:15:19;;;;;;;2.38;1.20;;;;;;;;;;5027288;27;106291;-67
2021/01/23 09:17:44;;;;;;;2.15;1.50;;;;;;;;;;5028951;27;105923;-68
2021/01/23 09:20:10;;;;;;;2.10;1.33;;;;;;;;;;4991416;27;107321;-68
2021/01/23 09:22:36;;;;;;;2.50;1.50;;;;;;;;;;4989798;27;107922;-69
2021/01/23 09:25:01;;;;;;;2.05;1.30;;;;;;;;;;5031129;27;105609;-69
2021/01/23 09:27:27;;;;;;;1.65;1.23;;;;;;;;;;5008049;27;107963;-65
2021/01/23 09:29:53;;;;;;;2.70;1.40;;;;;;;;;;5010271;27;105527;-69
2021/01/23 09:32:19;;;;;;;2.08;1.30;;;;;;;;;;5029311;27;106766;-68
2021/01/23 09:34:45;;;;;;;2.33;1.60;;;;;;;;;;5009311;27;106128;-67
2021/01/23 09:37:10;;;;;;;1.88;1.30;;;;;;;;;;5028898;27;106663;-67
2021/01/23 09:39:36;;;;;;;2.13;1.27;;;;;;;;;;5011722;27;106597;-68
2021/01/23 09:42:01;;;;;;;2.13;1.40;;;;;;;;;;5026741;27;106135;-68
2021/01/23 09:44:27;;;;;;;2.35;1.20;;;;;;;;;;5008828;27;105376;-66
2021/01/23 09:46:53;;;;;;;2.22;1.20;;;;;;;;;;5015330;27;105497;-67
2021/01/23 09:49:18;;;;;;;1.35;1.20;;;;;;;;;;5026616;27;105290;-68
2021/01/23 09:51:44;;;;;;;1.70;1.23;;;;;;;;;;4990118;27;106566;-67
2021/01/23 09:54:09;;;;;;;1.60;1.42;;;;;;;;;;5006764;27;106111;-69
2021/01/23 09:56:35;;;;;;;3.78;1.60;;;;;;;;;;5011267;27;105447;-66
2021/01/23 09:59:00;;;;;;;1.95;1.33;;;;;;;;;;4994316;27;106258;-67
2021/01/23 10:01:26;;;;;;;1.63;1.20;;;;;;;;;;4990401;27;107122;-66
2021/01/23 10:03:51;;;;;;;2.08;1.20;;;;;;;;;;5003491;27;106124;-67
2021/01/23 10:06:17;;;;;;;1.30;1.20;;;;;;;;;;5008423;27;106692;-67
2021/01/23 10:08:42;;;;;;;1.52;1.30;;;;;;;;;;4997829;27;105967;-67
2021/01/23 10:11:08;;;;;;;1.42;1.23;;;;;;;;;;5010352;27;108594;-68
2021/01/23 10:13:40;;;;;;;2.10;1.20;;;;;;;;;;5009254;27;108969;-67
2021/01/23 10:16:05;;;;;;;;;;;;;;;;;;4995205;27;105584;-68
2021/01/23 10:18:35;;;;;;;1.30;1.20;;;;;;;;;;5028363;27;107129;-67
2021/01/23 10:21:08;;;;;;;2.10;1.48;;;;;;;;;;5008908;27;108240;-67
2021/01/23 10:23:33;;;;;;;2.65;1.30;;;;;;;;;;5008706;27;105079;-64
2021/01/23 10:25:59;;;;;;;1.98;1.30;;;;;;;;;;5025357;27;106266;-67
2021/01/23 10:28:24;;;;;;;1.67;1.20;;;;;;;;;;4959819;27;109387;-66
2021/01/23 10:30:53;;;;;;;1.40;1.30;;;;;;;;;;4996474;27;105308;-67
2021/01/23 10:33:18;;;;;;;2.17;1.60;;;;;;;;;;5009340;27;109180;-67
2021/01/23 10:35:44;;;;;;;1.48;1.10;;;;;;;;;;4974739;27;106038;-67
2021/01/23 10:38:09;;;;;;;1.77;1.17;;;;;;;;;;4993790;27;106181;-67
2021/01/23 10:40:35;;;;;;;2.55;1.50;;;;;;;;;;5009615;27;106137;-67
2021/01/23 10:43:00;;;;;;;1.75;1.38;;;;;;;;;;5011068;27;105602;-69
2021/01/23 10:45:31;;;;;;;1.25;1.10;;;;;;;;;;4977525;27;115548;-66
2021/01/23 10:48:08;;;;;;;2.05;1.30;;;;;;;;;;5025965;27;106120;-65
2021/01/23 10:50:55;;;;;;;1.40;1.30;;;;;;;;;;5006974;27;105788;-67
2021/01/23 10:53:49;;;;;;;11.80;7.50;;;;;;;;;;4978755;27;105659;-70
2021/01/23 10:56:32;;;;;;;15.30;10.48;;;;;;;;;;4937769;27;105703;-68
2021/01/23 10:59:05;;;;;;;8.60;4.90;;;;;;;;;;5003821;22;107508;-66
2021/01/23 11:01:33;;;;;;;2.92;1.40;;;;;;;;;;4977547;28;105590;-66
2021/01/23 11:04:09;;;;;;;1.79;1.43;;;;;;;;;;4970261;28;10001932;-66
2021/01/23 11:06:34;;;;;;;1.38;1.10;;;;;;;;;;4977007;28;105108;-67
2021/01/23 11:09:00;;;;;;;1.40;1.30;;;;;;;;;;4973864;28;105224;-66
2021/01/23 11:11:26;;;;;;;1.52;1.30;;;;;;;;;;4953247;28;105085;-67
2021/01/23 11:13:51;;;;;;;1.67;1.20;;;;;;;;;;4978148;28;105074;-66
2021/01/23 11:16:17;;;;;;;1.65;1.40;;;;;;;;;;4976946;28;105072;-67
2021/01/23 11:18:43;;;;;;;1.45;1.35;;;;;;;;;;4976798;28;105073;-67
2021/01/23 11:21:08;;;;;;;1.23;1.13;;;;;;;;;;4977153;28;105004;-67
2021/01/23 11:23:34;;;;;;;2.10;1.38;;;;;;;;;;4959800;28;105433;-67
2021/01/23 11:25:59;;;;;;;1.73;1.50;;;;;;;;;;4976960;28;105037;-66
2021/01/23 11:28:25;;;;;;;1.95;1.70;;;;;;;;;;4978516;28;105075;-67
2021/01/23 11:30:53;;;;;;;1.80;1.45;;;;;;;;;;4976958;28;105559;-66
2021/01/23 11:33:20;;;;;;;1.77;1.38;;;;;;;;;;4977122;28;105150;-67
2021/01/23 11:35:45;;;;;;;2.58;1.50;;;;;;;;;;4979976;28;105493;-67
2021/01/23 11:38:11;;;;;;;2.50;1.60;;;;;;;;;;4991139;28;105129;-66
2021/01/23 11:40:36;;;;;;;1.92;1.40;;;;;;;;;;4997952;28;106874;-66
2021/01/23 11:43:02;;;;;;;1.73;1.50;;;;;;;;;;4998836;28;106143;-66
2021/01/23 11:45:27;;;;;;;1.52;1.42;;;;;;;;;;5000712;28;105018;-66
2021/01/23 11:47:53;;;;;;;1.98;1.50;;;;;;;;;;4999296;28;105295;-66
2021/01/23 11:50:18;;;;;;;1.50;1.35;;;;;;;;;;4999995;28;104940;-66
2021/01/23 11:52:44;;;;;;;1.70;1.33;;;;;;;;;;4999246;28;104971;-66
2021/01/23 11:55:09;;;;;;;1.90;1.30;;;;;;;;;;5000008;28;104949;-66
2021/01/23 11:57:35;;;;;;;2.55;1.75;;;;;;;;;;5001963;28;105583;-66
2021/01/23 12:00:02;;;;;;;2.20;1.50;;;;;;;;;;4999642;28;105188;-66
2021/01/23 12:02:37;;;;;;;1.92;1.50;;;;;;;;;;4995454;28;105468;-66
2021/01/23 12:05:04;;;;;;;1.92;1.45;;;;;;;;;;4981577;28;104967;-66
2021/01/23 12:07:30;;;;;;;1.83;1.58;;;;;;;;;;4998663;28;106789;-66
2021/01/23 12:09:55;;;;;;;1.52;1.40;;;;;;;;;;4998752;28;105692;-66
2021/01/23 12:12:20;;;;;;;1.65;1.42;;;;;;;;;;5000467;28;105010;-66
2021/01/23 12:14:46;;;;;;;2.33;1.60;;;;;;;;;;4999992;28;104952;-66
2021/01/23 12:17:11;;;;;;;2.22;1.67;;;;;;;;;;4981816;28;105912;-66
2021/01/23 12:19:37;;;;;;;2.53;1.88;;;;;;;;;;5002843;28;104976;-66
2021/01/23 12:22:03;;;;;;;2.92;1.70;;;;;;;;;;4999273;28;105322;-66
2021/01/23 12:24:31;;;;;;;1.50;1.40;;;;;;;;;;4967210;28;104964;-66
2021/01/23 12:26:58;;;;;;;1.80;1.50;;;;;;;;;;4997767;28;104980;-66
2021/01/23 12:29:24;;;;;;;1.80;1.30;;;;;;;;;;4999996;28;105678;-66
2021/01/23 12:31:49;;;;;;;1.77;1.45;;;;;;;;;;4999392;28;104958;-66
2021/01/23 12:34:15;;;;;;;1.80;1.40;;;;;;;;;;4998149;28;105688;-64
2021/01/23 12:36:40;;;;;;;2.95;2.05;;;;;;;;;;4980721;28;106051;-64
2021/01/23 12:39:05;;;;;;;4.55;2.90;;;;;;;;;;4999586;28;106080;-64
2021/01/23 12:41:31;;;;;;;2.65;1.75;;;;;;;;;;5003083;28;105759;-64
2021/01/23 12:43:56;;;;;;;2.28;1.80;;;;;;;;;;4998462;28;105131;-64
2021/01/23 12:46:22;;;;;;;3.00;2.10;;;;;;;;;;4999479;28;120787;-64
2021/01/23 12:48:49;;;;;;;2.85;1.75;;;;;;;;;;4998795;28;105006;-64
2021/01/23 12:51:16;;;;;;;2.28;1.60;;;;;;;;;;4999951;28;105156;-64
2021/01/23 12:53:42;;;;;;;2.03;1.58;;;;;;;;;;4996881;28;105314;-64
2021/01/23 12:56:07;;;;;;;1.67;1.50;;;;;;;;;;4967077;28;108637;-64
2021/01/23 12:58:33;;;;;;;1.92;1.60;;;;;;;;;;4982783;28;104942;-64
2021/01/23 13:00:58;;;;;;;2.47;1.40;;;;;;;;;;4980574;28;105532;-64
2021/01/23 13:03:24;;;;;;;1.70;1.40;;;;;;;;;;4967224;28;105073;-64
2021/01/23 13:05:50;;;;;;;1.65;1.25;;;;;;;;;;4997974;28;105412;-64
2021/01/23 13:08:15;;;;;;;2.03;1.60;;;;;;;;;;4999073;28;105364;-64
2021/01/23 13:10:41;;;;;;;2.47;1.60;;;;;;;;;;4996421;28;105217;-64
2021/01/23 13:13:07;;;;;;;2.22;1.50;;;;;;;;;;4997607;28;105069;-64
2021/01/23 13:15:32;;;;;;;2.08;1.40;;;;;;;;;;4997699;28;105586;-64
2021/01/23 13:17:58;;;;;;;2.47;1.65;;;;;;;;;;4998391;28;105195;-64
2021/01/23 13:20:23;;;;;;;2.30;1.70;;;;;;;;;;4998541;28;104985;-64
2021/01/23 13:22:49;;;;;;;2.53;1.63;;;;;;;;;;5001428;28;104952;-64
2021/01/23 13:25:14;;;;;;;1.50;1.40;;;;;;;;;;4997890;28;116476;-64
2021/01/23 13:27:40;;;;;;;2.20;1.52;;;;;;;;;;4996517;28;105069;-64
2021/01/23 13:30:06;;;;;;;1.73;1.40;;;;;;;;;;4977828;28;105663;-64
2021/01/23 13:32:31;;;;;;;2.20;1.60;;;;;;;;;;4999542;28;105530;-64
2021/01/23 13:34:57;;;;;;;2.42;1.50;;;;;;;;;;4997547;28;105143;-64
2021/01/23 13:37:22;;;;;;;1.58;1.45;;;;;;;;;;4998917;28;104959;-64
2021/01/23 13:39:48;;;;;;;2.17;1.33;;;;;;;;;;4995911;28;105596;-64
2021/01/23 13:42:13;;;;;;;1.40;1.25;;;;;;;;;;4997287;28;105237;-64
2021/01/23 13:44:39;;;;;;;1.48;1.30;;;;;;;;;;4983338;28;105107;-64
2021/01/23 13:47:04;;;;;;;2.70;1.40;;;;;;;;;;4996926;28;105635;-64
2021/01/23 13:49:30;;;;;;;2.28;1.35;;;;;;;;;;4980105;28;106539;-64
2021/01/23 13:51:55;;;;;;;2.13;1.70;;;;;;;;;;4979013;28;106155;-64
2021/01/23 13:54:21;;;;;;;2.03;1.40;;;;;;;;;;4997629;28;105570;-64
2021/01/23 13:56:46;;;;;;;2.05;1.52;;;;;;;;;;4998180;28;106897;-64
2021/01/23 13:59:11;;;;;;;2.72;1.77;;;;;;;;;;4996571;28;111402;-64
2021/01/23 14:01:37;;;;;;;2.03;1.50;;;;;;;;;;4996434;28;105465;-64
2021/01/23 14:04:02;;;;;;;2.22;1.77;;;;;;;;;;4996647;28;105070;-64
2021/01/23 14:06:28;;;;;;;2.20;1.48;;;;;;;;;;5000245;28;105724;-64
2021/01/23 14:08:53;;;;;;;2.03;1.30;;;;;;;;;;4997073;28;106542;-64
2021/01/23 14:11:19;;;;;;;1.90;1.40;;;;;;;;;;4998010;28;109152;-64
2021/01/23 14:13:44;;;;;;;2.38;1.40;;;;;;;;;;4997142;28;105459;-64
2021/01/23 14:16:10;;;;;;;1.85;1.30;;;;;;;;;;4998160;28;105297;-64
2021/01/23 14:18:35;;;;;;;2.45;1.52;;;;;;;;;;4997812;28;104979;-64
2021/01/23 14:21:01;;;;;;;3.03;2.00;;;;;;;;;;4997301;28;105024;-64
2021/01/23 14:23:26;;;;;;;2.17;1.50;;;;;;;;;;4996712;28;104972;-64
2021/01/23 14:25:52;;;;;;;3.17;1.80;;;;;;;;;;4997145;28;105343;-64
2021/01/23 14:28:17;;;;;;;2.05;1.70;;;;;;;;;;4999887;28;105609;-64
2021/01/23 14:30:43;;;;;;;2.60;1.67;;;;;;;;;;4997515;28;104936;-64
2021/01/23 14:33:08;;;;;;;1.88;1.50;;;;;;;;;;4981676;28;107842;-64
2021/01/23 14:35:34;;;;;;;1.40;1.30;;;;;;;;;;4977890;28;105012;-64